createdAt,value
2022-11-24T00:01:29.357Z,-4.20
2022-11-24T00:03:59.039Z,-4.06
2022-11-24T00:06:26.737Z,-4.11
2022-11-24T00:08:54.326Z,-4.10
2022-11-24T00:11:24.761Z,-4.13
2022-11-24T00:13:52.668Z,-4.18
2022-11-24T00:16:22.467Z,-4.16
2022-11-24T00:18:51.132Z,-4.14
2022-11-24T00:21:19.392Z,-4.13
2022-11-24T00:23:47.599Z,-4.13
2022-11-24T00:26:17.350Z,-4.13
2022-11-24T00:28:45.828Z,-4.18
2022-11-24T00:31:24.241Z,-4.34
2022-11-24T00:33:53.419Z,-4.34
2022-11-24T00:36:22.213Z,-4.18
2022-11-24T00:38:56.215Z,-4.38
2022-11-24T00:41:25.006Z,-4.23
2022-11-24T00:43:52.940Z,-4.35
2022-11-24T00:46:20.892Z,-4.29
2022-11-24T00:48:48.198Z,-4.24
2022-11-24T00:51:17.649Z,-4.28
2022-11-24T00:53:45.285Z,-4.36
2022-11-24T00:56:13.274Z,-4.31
2022-11-24T00:58:40.688Z,-4.28
2022-11-24T01:01:24.522Z,-4.28
2022-11-24T01:03:52.117Z,-4.38
2022-11-24T01:06:24.284Z,-4.52
2022-11-24T01:08:51.660Z,-4.43
2022-11-24T01:11:24.576Z,-4.34
2022-11-24T01:13:58.093Z,-4.36
2022-11-24T01:16:29.669Z,-4.41
2022-11-24T01:18:57.015Z,-4.53
2022-11-24T01:21:24.213Z,-4.38
2022-11-24T01:23:51.892Z,-4.40
2022-11-24T01:26:21.950Z,-4.46
2022-11-24T01:28:54.382Z,-4.43
2022-11-24T01:31:22.389Z,-4.47
2022-11-24T01:33:49.588Z,-4.58
2022-11-24T01:36:16.771Z,-4.49
2022-11-24T01:38:44.149Z,-4.53
2022-11-24T01:41:16.161Z,-4.48
2022-11-24T01:43:45.413Z,-4.51
2022-11-24T01:46:47.277Z,-4.56
2022-11-24T01:49:24.814Z,-4.57
2022-11-24T01:51:58.029Z,-4.54
2022-11-24T01:54:36.396Z,-4.67
2022-11-24T01:57:16.528Z,-4.53
2022-11-24T01:59:47.122Z,-4.52
2022-11-24T02:02:17.701Z,-4.53
2022-11-24T02:04:46.175Z,-4.59
2022-11-24T02:07:14.701Z,-4.47
2022-11-24T02:10:03.103Z,-4.52
2022-11-24T02:12:33.120Z,-4.49
2022-11-24T02:15:21.337Z,-4.53
2022-11-24T02:17:48.539Z,-4.54
2022-11-24T02:20:16.941Z,-4.57
2022-11-24T02:22:59.653Z,-4.54
2022-11-24T02:25:45.318Z,-4.55
2022-11-24T02:28:19.721Z,-4.67
2022-11-24T02:30:47.410Z,-4.65
2022-11-24T02:33:15.342Z,-4.56
2022-11-24T02:35:43.223Z,-4.55
2022-11-24T02:38:13.679Z,-4.56
2022-11-24T02:40:46.838Z,-4.57
2022-11-24T02:43:17.991Z,-4.74
2022-11-24T02:45:45.428Z,-4.66
2022-11-24T02:48:14.787Z,-4.76
2022-11-24T02:50:42.102Z,-4.87
2022-11-24T02:53:09.275Z,-4.76
2022-11-24T02:55:36.454Z,-4.73
2022-11-24T02:58:03.696Z,-4.81
2022-11-24T03:00:30.986Z,-4.87
2022-11-24T03:02:58.742Z,-4.77
2022-11-24T03:05:26.593Z,-4.76
2022-11-24T03:07:53.984Z,-4.90
2022-11-24T03:10:21.231Z,-4.76
2022-11-24T03:12:48.428Z,-4.74
2022-11-24T03:15:15.488Z,-4.74
2022-11-24T03:17:42.717Z,-4.84
2022-11-24T03:20:10.640Z,-4.73
2022-11-24T03:22:38.071Z,-4.74
2022-11-24T03:25:05.728Z,-4.73
2022-11-24T03:27:33.026Z,-4.72
2022-11-24T03:30:00.186Z,-4.77
2022-11-24T03:32:27.523Z,-4.89
2022-11-24T03:34:54.671Z,-4.88
2022-11-24T03:37:22.710Z,-4.79
2022-11-24T03:39:49.937Z,-4.79
2022-11-24T03:42:17.187Z,-4.75
2022-11-24T03:44:44.340Z,-4.80
2022-11-24T03:47:12.818Z,-4.75
2022-11-24T03:49:41.596Z,-4.90
2022-11-24T03:52:09.324Z,-4.86
2022-11-24T03:54:36.682Z,-4.95
2022-11-24T03:57:03.926Z,-4.82
2022-11-24T03:59:31.095Z,-4.90
2022-11-24T04:01:58.430Z,-5.01
2022-11-24T04:04:25.663Z,-5.03
2022-11-24T04:06:52.703Z,-4.90
2022-11-24T04:09:19.896Z,-5.03
2022-11-24T04:12:05.377Z,-4.96
2022-11-24T04:14:32.716Z,-5.01
2022-11-24T04:17:00.190Z,-5.06
2022-11-24T04:19:27.183Z,-5.04
2022-11-24T04:21:54.324Z,-5.13
2022-11-24T04:24:21.339Z,-5.16
2022-11-24T04:26:48.415Z,-5.12
2022-11-24T04:29:15.374Z,-5.05
2022-11-24T04:31:42.440Z,-5.14
2022-11-24T04:34:09.551Z,-5.02
2022-11-24T04:36:36.529Z,-5.00
2022-11-24T04:39:25.005Z,-5.06
2022-11-24T04:41:50.655Z,-5.15
2022-11-24T04:44:17.654Z,-4.98
2022-11-24T04:46:44.730Z,-5.00
2022-11-24T04:49:12.013Z,-5.05
2022-11-24T04:51:40.193Z,-5.08
2022-11-24T04:54:08.233Z,-5.07
2022-11-24T04:56:35.246Z,-5.15
2022-11-24T04:59:07.863Z,-5.11
2022-11-24T05:01:35.757Z,-5.13
2022-11-24T05:04:02.881Z,-5.09
2022-11-24T05:06:30.122Z,-5.16
2022-11-24T05:08:57.114Z,-5.07
2022-11-24T05:11:24.086Z,-5.11
2022-11-24T05:13:53.167Z,-5.07
2022-11-24T05:16:20.379Z,-5.03
2022-11-24T05:18:47.543Z,-5.04
2022-11-24T05:21:14.967Z,-5.21
2022-11-24T05:23:42.135Z,-5.17
2022-11-24T05:26:09.327Z,-5.12
2022-11-24T05:28:36.401Z,-5.00
2022-11-24T05:31:04.662Z,-5.00
2022-11-24T05:33:33.534Z,-5.18
2022-11-24T05:36:03.008Z,-4.99
2022-11-24T05:38:30.745Z,-5.05
2022-11-24T05:41:02.699Z,-5.07
2022-11-24T05:43:30.136Z,-5.06
2022-11-24T05:46:00.927Z,-5.18
2022-11-24T05:48:28.297Z,-5.19
2022-11-24T05:50:56.510Z,-5.10
2022-11-24T05:53:24.275Z,-5.16
2022-11-24T05:55:51.412Z,-5.36
2022-11-24T05:58:18.431Z,-5.21
2022-11-24T06:00:45.885Z,-5.25
2022-11-24T06:03:13.352Z,-5.22
2022-11-24T06:05:40.386Z,-5.19
2022-11-24T06:08:07.419Z,-5.33
2022-11-24T06:10:34.283Z,-5.25
2022-11-24T06:13:06.318Z,-5.25
2022-11-24T06:15:34.220Z,-5.21
2022-11-24T06:18:01.219Z,-5.19
2022-11-24T06:20:32.421Z,-5.12
2022-11-24T06:23:01.015Z,-5.06
2022-11-24T06:25:29.373Z,-4.96
2022-11-24T06:27:56.406Z,-4.95
2022-11-24T06:30:23.391Z,-5.06
2022-11-24T06:32:55.039Z,-5.07
2022-11-24T06:35:22.009Z,-5.02
2022-11-24T06:37:48.958Z,-5.03
2022-11-24T06:40:16.283Z,-5.04
2022-11-24T06:42:43.268Z,-5.41
2022-11-24T06:45:10.522Z,-5.11
2022-11-24T06:47:37.505Z,-5.13
2022-11-24T06:50:04.905Z,-5.05
2022-11-24T06:52:31.904Z,-5.37
2022-11-24T06:54:58.954Z,-5.07
2022-11-24T06:57:29.560Z,-5.06
2022-11-24T06:59:57.409Z,-5.19
2022-11-24T07:02:24.664Z,-5.12
2022-11-24T07:04:51.758Z,-5.25
2022-11-24T07:07:18.792Z,-5.04
2022-11-24T07:09:45.798Z,-5.08
2022-11-24T07:12:12.809Z,-4.99
2022-11-24T07:14:39.788Z,-5.25
2022-11-24T07:17:07.564Z,-4.98
2022-11-24T07:19:34.511Z,-5.03
2022-11-24T07:22:01.526Z,-5.04
2022-11-24T07:24:28.487Z,-5.11
2022-11-24T07:26:55.430Z,-5.00
2022-11-24T07:29:22.381Z,-5.05
2022-11-24T07:31:50.251Z,-5.04
2022-11-24T07:34:17.369Z,-5.09
2022-11-24T07:36:45.289Z,-5.00
2022-11-24T07:39:12.406Z,-4.94
2022-11-24T07:41:39.393Z,-5.01
2022-11-24T07:44:06.422Z,-5.00
2022-11-24T07:46:33.432Z,-4.92
2022-11-24T07:49:00.445Z,-4.90
2022-11-24T07:51:27.420Z,-4.91
2022-11-24T07:53:54.355Z,-4.86
2022-11-24T07:56:24.570Z,-4.83
2022-11-24T07:58:53.154Z,-4.83
2022-11-24T08:01:20.909Z,-4.86
2022-11-24T08:03:47.975Z,-4.90
2022-11-24T08:06:26.102Z,-4.93
2022-11-24T08:08:55.495Z,-4.94
2022-11-24T08:11:22.826Z,-4.94
2022-11-24T08:13:49.861Z,-4.95
2022-11-24T08:16:19.163Z,-4.99
2022-11-24T08:18:54.555Z,-4.96
2022-11-24T08:21:23.638Z,-5.00
2022-11-24T08:23:55.654Z,-5.01
2022-11-24T08:26:25.088Z,-5.01
2022-11-24T08:28:59.351Z,-4.97
2022-11-24T08:31:33.654Z,-5.18
2022-11-24T08:34:02.405Z,-5.05
2022-11-24T08:36:29.389Z,-4.93
2022-11-24T08:38:58.906Z,-4.86
2022-11-24T08:41:27.120Z,-5.05
2022-11-24T08:43:55.083Z,-5.01
2022-11-24T08:46:22.588Z,-4.76
2022-11-24T08:48:51.730Z,-4.69
2022-11-24T08:51:25.162Z,-4.74
2022-11-24T08:54:00.184Z,-4.73
2022-11-24T08:56:28.735Z,-4.74
2022-11-24T08:58:56.829Z,-4.69
2022-11-24T09:01:25.045Z,-4.74
2022-11-24T09:03:53.073Z,-4.62
2022-11-24T09:06:23.723Z,-4.59
2022-11-24T09:08:54.643Z,-4.48
2022-11-24T09:11:22.420Z,-4.47
2022-11-24T09:13:49.697Z,-4.49
2022-11-24T09:16:20.337Z,-4.37
2022-11-24T09:18:48.478Z,-4.43
2022-11-24T09:21:22.282Z,-4.49
2022-11-24T09:23:50.811Z,-4.40
2022-11-24T09:26:24.201Z,-4.54
2022-11-24T09:28:54.663Z,-4.46
2022-11-24T09:31:24.365Z,-4.32
2022-11-24T09:33:52.589Z,-4.30
2022-11-24T09:36:20.473Z,-4.38
2022-11-24T09:38:47.603Z,-4.38
2022-11-24T09:41:26.366Z,-4.41
2022-11-24T09:44:15.009Z,-4.53
2022-11-24T09:46:49.858Z,-4.48
2022-11-24T09:49:24.358Z,-4.49
2022-11-24T09:51:55.338Z,-4.50
2022-11-24T09:54:26.716Z,-4.58
2022-11-24T09:56:55.467Z,-4.57
2022-11-24T09:59:24.388Z,-4.53
2022-11-24T10:01:52.407Z,-4.64
2022-11-24T10:04:42.373Z,-4.61
2022-11-24T10:07:12.263Z,-4.57
2022-11-24T10:09:44.874Z,-4.57
2022-11-24T10:12:32.980Z,-4.44
2022-11-24T10:15:22.665Z,-4.49
2022-11-24T10:18:01.381Z,-4.59
2022-11-24T10:20:31.332Z,-4.43
2022-11-24T10:23:10.699Z,-4.49
2022-11-24T10:25:57.933Z,-4.50
2022-11-24T10:28:40.148Z,-4.51
2022-11-24T10:31:12.987Z,-4.61
2022-11-24T10:33:41.963Z,-4.69
2022-11-24T10:36:17.001Z,-4.78
2022-11-24T10:39:03.170Z,-4.75
2022-11-24T10:42:02.925Z,-4.66
2022-11-24T10:44:30.030Z,-4.68
2022-11-24T10:46:57.565Z,-4.77
2022-11-24T10:49:29.766Z,-4.81
2022-11-24T10:52:05.972Z,-4.79
2022-11-24T10:54:36.000Z,-4.98
2022-11-24T10:57:03.522Z,-4.81
2022-11-24T10:59:37.958Z,-4.74
2022-11-24T11:02:31.699Z,-4.74
2022-11-24T11:04:58.943Z,-4.89
2022-11-24T11:07:27.239Z,-4.77
2022-11-24T11:10:21.305Z,-4.76
2022-11-24T11:12:49.825Z,-5.00
2022-11-24T11:15:30.317Z,-5.13
2022-11-24T11:17:59.522Z,-5.28
2022-11-24T11:20:32.719Z,-5.09
2022-11-24T11:23:05.111Z,-5.13
2022-11-24T11:25:36.341Z,-5.07
2022-11-24T11:28:18.176Z,-5.03
2022-11-24T11:31:22.760Z,-5.05
2022-11-24T11:34:06.441Z,-5.02
2022-11-24T11:36:41.256Z,-5.13
2022-11-24T11:39:20.733Z,-5.06
2022-11-24T11:41:50.351Z,-5.14
2022-11-24T11:44:36.091Z,-5.11
2022-11-24T11:47:14.194Z,-5.40
2022-11-24T11:49:41.255Z,-5.22
2022-11-24T11:52:25.359Z,-5.29
2022-11-24T11:55:04.960Z,-5.36
2022-11-24T11:57:31.902Z,-5.39
2022-11-24T12:00:18.957Z,-5.47
2022-11-24T12:03:23.250Z,-5.37
2022-11-24T12:06:28.116Z,-5.36
2022-11-24T12:09:22.440Z,-5.37
2022-11-24T12:12:26.981Z,-5.35
2022-11-24T12:15:24.726Z,-5.36
2022-11-24T12:18:40.314Z,-5.40
2022-11-24T12:21:26.420Z,-5.39
2022-11-24T12:24:22.788Z,-5.39
2022-11-24T12:26:59.444Z,-5.45
2022-11-24T12:29:34.353Z,-5.60
2022-11-24T12:32:23.952Z,-5.53
2022-11-24T12:35:09.135Z,-5.59
2022-11-24T12:37:48.726Z,-5.67
2022-11-24T12:40:46.385Z,-5.71
2022-11-24T12:43:26.806Z,-5.78
2022-11-24T12:45:58.149Z,-5.78
2022-11-24T12:48:33.661Z,-5.70
2022-11-24T12:51:01.552Z,-5.82
2022-11-24T12:53:32.957Z,-5.72
2022-11-24T12:56:07.554Z,-5.71
2022-11-24T12:58:50.414Z,-5.69
2022-11-24T13:01:35.847Z,-5.66
2022-11-24T13:04:34.370Z,-5.82
2022-11-24T13:07:09.487Z,-5.80
2022-11-24T13:09:36.806Z,-5.82
2022-11-24T13:12:14.587Z,-5.82
2022-11-24T13:14:44.435Z,-5.92
2022-11-24T13:18:05.230Z,-5.88
2022-11-24T13:20:39.083Z,-5.87
2022-11-24T13:23:09.531Z,-6.00
2022-11-24T13:25:39.645Z,-5.99
2022-11-24T13:28:06.932Z,-5.86
2022-11-24T13:30:33.918Z,-5.81
2022-11-24T13:33:03.036Z,-5.84
2022-11-24T13:35:30.561Z,-5.99
2022-11-24T13:37:57.840Z,-5.87
2022-11-24T13:40:26.501Z,-5.94
2022-11-24T13:42:57.357Z,-5.94
2022-11-24T13:45:54.106Z,-5.96
2022-11-24T13:48:21.748Z,-6.02
2022-11-24T13:50:56.221Z,-6.00
2022-11-24T13:53:32.541Z,-5.98
2022-11-24T13:56:15.135Z,-6.00
2022-11-24T13:58:44.395Z,-6.11
2022-11-24T14:01:19.617Z,-5.98
2022-11-24T14:06:55.572Z,-6.02
2022-11-24T14:09:27.386Z,-6.24
2022-11-24T14:12:08.275Z,-6.12
2022-11-24T14:14:35.504Z,-6.17
2022-11-24T14:17:28.572Z,-6.11
2022-11-24T14:19:57.506Z,-6.14
2022-11-24T14:22:40.368Z,-6.17
2022-11-24T14:25:23.114Z,-6.14
2022-11-24T14:27:50.233Z,-6.13
2022-11-24T14:30:20.808Z,-6.16
2022-11-24T14:32:58.938Z,-6.11
2022-11-24T14:35:35.272Z,-6.07
2022-11-24T14:38:04.515Z,-6.10
2022-11-24T14:40:55.737Z,-6.09
2022-11-24T14:43:30.514Z,-6.09
2022-11-24T14:46:01.395Z,-6.19
2022-11-24T14:48:31.604Z,-6.18
2022-11-24T14:51:06.239Z,-6.10
2022-11-24T14:53:34.472Z,-6.27
2022-11-24T14:56:32.474Z,-6.23
2022-11-24T14:58:59.584Z,-6.30
2022-11-24T15:01:29.703Z,-6.35
2022-11-24T15:04:26.954Z,-6.31
2022-11-24T15:07:16.300Z,-6.41
2022-11-24T15:09:55.446Z,-6.36
2022-11-24T15:12:31.703Z,-6.35
2022-11-24T15:15:02.170Z,-6.25
2022-11-24T15:17:31.562Z,-6.29
2022-11-24T15:20:26.439Z,-6.32
2022-11-24T15:23:19.257Z,-6.34
2022-11-24T15:25:46.250Z,-6.40
2022-11-24T15:28:13.226Z,-6.40
2022-11-24T15:30:40.238Z,-6.33
2022-11-24T15:33:18.118Z,-6.30
2022-11-24T15:35:45.992Z,-6.25
2022-11-24T15:38:13.052Z,-6.33
2022-11-24T15:40:42.686Z,-6.26
2022-11-24T15:43:35.353Z,-6.21
2022-11-24T15:46:04.365Z,-6.25
2022-11-24T15:48:31.487Z,-6.35
2022-11-24T15:51:01.342Z,-6.36
2022-11-24T15:53:39.224Z,-6.45
2022-11-24T15:56:15.260Z,-6.40
2022-11-24T15:58:42.237Z,-6.43
2022-11-24T16:01:09.249Z,-6.37
2022-11-24T16:03:46.821Z,-6.45
2022-11-24T16:06:24.715Z,-6.40
2022-11-24T16:08:55.317Z,-6.35
2022-11-24T16:11:23.235Z,-6.40
2022-11-24T16:13:53.465Z,-6.39
2022-11-24T16:16:23.096Z,-6.49
2022-11-24T16:18:50.861Z,-6.43
2022-11-24T16:21:18.145Z,-6.44
2022-11-24T16:23:45.779Z,-6.47
2022-11-24T16:26:12.907Z,-6.47
2022-11-24T16:28:40.753Z,-6.43
2022-11-24T16:31:07.750Z,-6.44
2022-11-24T16:33:34.900Z,-6.41
2022-11-24T16:36:01.887Z,-6.56
2022-11-24T16:38:28.877Z,-6.50
2022-11-24T16:40:57.001Z,-6.59
2022-11-24T16:43:24.780Z,-6.48
2022-11-24T16:46:23.703Z,-6.39
2022-11-24T16:48:53.365Z,-6.70
2022-11-24T16:51:23.002Z,-6.46
2022-11-24T16:54:00.609Z,-6.64
2022-11-24T16:56:28.996Z,-6.75
2022-11-24T16:58:56.030Z,-6.47
2022-11-24T17:01:23.323Z,-6.45
2022-11-24T17:03:50.533Z,-6.56
2022-11-24T17:06:18.109Z,-6.51
2022-11-24T17:08:46.643Z,-6.45
2022-11-24T17:11:18.194Z,-6.79
2022-11-24T17:13:47.453Z,-6.44
2022-11-24T17:16:17.726Z,-6.74
2022-11-24T17:18:44.715Z,-6.49
2022-11-24T17:21:15.876Z,-6.49
2022-11-24T17:23:43.342Z,-6.51
2022-11-24T17:26:19.807Z,-6.51
2022-11-24T17:28:47.301Z,-6.53
2022-11-24T17:31:17.259Z,-6.53
2022-11-24T17:33:44.419Z,-6.56
2022-11-24T17:36:11.767Z,-6.57
2022-11-24T17:38:39.118Z,-6.55
2022-11-24T17:41:06.413Z,-6.50
2022-11-24T17:43:33.572Z,-6.56
2022-11-24T17:46:02.364Z,-6.75
2022-11-24T17:48:30.984Z,-6.91
2022-11-24T17:51:10.128Z,-6.66
2022-11-24T17:53:37.694Z,-6.66
2022-11-24T17:56:06.189Z,-6.66
2022-11-24T17:58:39.707Z,-6.68
2022-11-24T18:01:10.715Z,-6.68
2022-11-24T18:03:39.801Z,-6.83
2022-11-24T18:06:12.422Z,-6.66
2022-11-24T18:08:44.030Z,-6.67
2022-11-24T18:11:25.949Z,-6.61
2022-11-24T18:14:01.191Z,-6.63
2022-11-24T18:16:31.293Z,-6.67
2022-11-24T18:19:08.811Z,-6.67
2022-11-24T18:21:41.060Z,-6.67
2022-11-24T18:24:09.353Z,-6.69
2022-11-24T18:26:36.976Z,-6.57
2022-11-24T18:29:05.009Z,-6.57
2022-11-24T18:31:34.413Z,-6.97
2022-11-24T18:34:02.513Z,-6.63
2022-11-24T18:36:32.901Z,-6.56
2022-11-24T18:39:08.663Z,-6.60
2022-11-24T18:41:36.211Z,-6.57
2022-11-24T18:44:08.341Z,-6.68
2022-11-24T18:46:38.708Z,-6.57
2022-11-24T18:49:07.302Z,-6.56
2022-11-24T18:51:34.736Z,-6.56
2022-11-24T18:54:04.037Z,-6.69
2022-11-24T18:56:31.644Z,-6.51
2022-11-24T18:58:59.147Z,-6.58
2022-11-24T19:01:28.936Z,-6.48
2022-11-24T19:03:58.349Z,-6.48
2022-11-24T19:06:32.031Z,-6.57
2022-11-24T19:09:01.300Z,-6.62
2022-11-24T19:11:32.669Z,-6.45
2022-11-24T19:14:00.994Z,-6.45
2022-11-24T19:16:28.886Z,-6.39
2022-11-24T19:19:00.279Z,-6.43
2022-11-24T19:21:30.702Z,-6.42
2022-11-24T19:24:04.212Z,-6.39
2022-11-24T19:26:32.509Z,-6.48
2022-11-24T19:28:59.454Z,-6.48
2022-11-24T19:31:26.721Z,-6.49
2022-11-24T19:33:54.779Z,-6.55
2022-11-24T19:36:22.981Z,-6.82
2022-11-24T19:38:52.069Z,-6.52
2022-11-24T19:41:21.162Z,-6.55
2022-11-24T19:43:48.734Z,-6.80
2022-11-24T19:46:18.624Z,-6.57
2022-11-24T19:48:50.112Z,-6.51
2022-11-24T19:51:20.063Z,-6.53
2022-11-24T19:53:47.963Z,-6.57
2022-11-24T19:56:23.536Z,-6.51
2022-11-24T19:58:51.297Z,-6.53
2022-11-24T20:01:24.794Z,-6.61
2022-11-24T20:04:13.670Z,-6.64
2022-11-24T20:06:43.127Z,-6.72
2022-11-24T20:09:16.116Z,-6.70
2022-11-24T20:11:43.401Z,-6.63
2022-11-24T20:14:12.470Z,-6.58
2022-11-24T20:16:39.871Z,-6.56
2022-11-24T20:19:10.666Z,-6.53
2022-11-24T20:21:38.902Z,-6.75
2022-11-24T20:24:06.166Z,-6.48
2022-11-24T20:26:36.582Z,-6.49
2022-11-24T20:29:05.048Z,-6.53
2022-11-24T20:31:35.385Z,-6.70
2022-11-24T20:34:04.388Z,-6.61
2022-11-24T20:36:34.132Z,-6.56
2022-11-24T20:39:02.666Z,-6.57
2022-11-24T20:41:33.773Z,-6.56
2022-11-24T20:44:05.147Z,-6.57
2022-11-24T20:46:34.338Z,-6.59
2022-11-24T20:49:03.553Z,-6.82
2022-11-24T20:51:34.070Z,-6.57
2022-11-24T20:54:04.904Z,-6.83
2022-11-24T20:56:37.870Z,-6.55
2022-11-24T20:59:04.960Z,-6.70
2022-11-24T21:01:43.643Z,-6.65
2022-11-24T21:04:13.401Z,-6.66
2022-11-24T21:06:40.855Z,-6.64
2022-11-24T21:09:09.562Z,-6.73
2022-11-24T21:11:37.788Z,-6.72
2022-11-24T21:14:05.401Z,-6.84
2022-11-24T21:16:34.734Z,-6.88
2022-11-24T21:19:06.782Z,-6.70
2022-11-24T21:21:35.636Z,-6.74
2022-11-24T21:24:16.336Z,-6.70
2022-11-24T21:26:47.512Z,-6.84
2022-11-24T21:29:17.286Z,-6.90
2022-11-24T21:31:44.346Z,-6.80
2022-11-24T21:34:15.161Z,-6.66
2022-11-24T21:36:44.953Z,-6.75
2022-11-24T21:39:13.777Z,-6.64
2022-11-24T21:41:41.104Z,-6.64
2022-11-24T21:44:08.939Z,-6.57
2022-11-24T21:46:44.186Z,-6.64
2022-11-24T21:49:15.059Z,-6.59
2022-11-24T21:51:42.082Z,-6.66
2022-11-24T21:54:09.387Z,-6.60
2022-11-24T21:56:36.459Z,-6.76
2022-11-24T21:59:03.347Z,-6.60
2022-11-24T22:01:30.463Z,-6.60
2022-11-24T22:03:57.533Z,-6.73
2022-11-24T22:06:24.945Z,-6.87
2022-11-24T22:08:52.238Z,-6.75
2022-11-24T22:11:22.189Z,-6.82
2022-11-24T22:13:49.589Z,-6.85
2022-11-24T22:16:19.441Z,-6.83
2022-11-24T22:18:46.693Z,-6.80
2022-11-24T22:21:16.035Z,-6.80
2022-11-24T22:23:43.668Z,-6.77
2022-11-24T22:26:20.513Z,-6.75
2022-11-24T22:28:47.665Z,-6.84
2022-11-24T22:31:17.121Z,-6.99
2022-11-24T22:33:44.523Z,-6.91
2022-11-24T22:36:13.232Z,-6.90
2022-11-24T22:38:41.033Z,-7.12
2022-11-24T22:41:10.955Z,-6.87
2022-11-24T22:43:40.212Z,-6.84
2022-11-24T22:46:13.004Z,-6.84
2022-11-24T22:48:41.106Z,-7.11
2022-11-24T22:51:13.738Z,-7.18
2022-11-24T22:53:41.481Z,-6.89
2022-11-24T22:56:11.992Z,-7.05
2022-11-24T22:58:40.085Z,-6.96
2022-11-24T23:01:15.850Z,-6.97
2022-11-24T23:03:43.896Z,-6.95
2022-11-24T23:06:31.643Z,-6.92
2022-11-24T23:09:00.166Z,-6.92
2022-11-24T23:11:36.348Z,-6.88
2022-11-24T23:14:04.358Z,-6.87
2022-11-24T23:16:31.555Z,-6.85
2022-11-24T23:18:58.892Z,-6.80
2022-11-24T23:21:28.732Z,-6.83
2022-11-24T23:23:56.586Z,-6.91
2022-11-24T23:26:26.761Z,-6.84
2022-11-24T23:28:54.271Z,-6.87
2022-11-24T23:31:24.619Z,-6.90
2022-11-24T23:33:51.649Z,-6.93
2022-11-24T23:36:20.143Z,-6.97
2022-11-24T23:38:48.511Z,-6.95
2022-11-24T23:41:19.095Z,-7.14
2022-11-24T23:43:46.771Z,-7.04
2022-11-24T23:46:15.851Z,-6.94
2022-11-24T23:48:43.491Z,-6.97
2022-11-24T23:51:15.544Z,-6.97
2022-11-24T23:53:43.341Z,-6.92
2022-11-24T23:56:15.227Z,-6.90
2022-11-24T23:58:42.727Z,-6.96
